Time;durP1;ratioP1;P1;durP2;ratioP2;P2;SDS_P1;SDS_P2;PMS_P1;PMS_P2;Temp;Humidity;BMP_temperature;BMP_pressure;BME280_temperature;BME280_humidity;BME280_pressure;Samples;Min_cycle;Max_cycle;Signal;HPM_P1;HPM_P2
2022/01/11 00:00:20;;;;;;;19.35;8.82;;;;;;;4.30;62.82;102979.66;4947775;28;123809;-70
2022/01/11 00:02:49;;;;;;;27.10;8.73;;;;;;;4.32;62.73;102988.41;4947499;28;119592;-70
2022/01/11 00:05:26;;;;;;;34.88;9.23;;;;;;;4.33;62.99;102995.41;4930658;28;118357;-70
2022/01/11 00:07:55;;;;;;;34.08;8.93;;;;;;;4.32;62.94;102993.66;4944725;28;124184;-69
2022/01/11 00:10:35;;;;;;;40.38;9.05;;;;;;;4.34;62.96;102997.19;4948027;28;124435;-70
2022/01/11 00:13:02;;;;;;;35.15;8.98;;;;;;;4.33;62.79;102999.78;4929930;28;117780;-70
2022/01/11 00:15:30;;;;;;;28.67;8.52;;;;;;;4.31;62.84;103001.50;4947866;28;119559;-70
2022/01/11 00:17:58;;;;;;;41.70;9.02;;;;;;;4.30;62.70;103005.88;4947614;28;124627;-70
2022/01/11 00:20:27;;;;;;;33.67;8.48;;;;;;;4.28;62.65;103012.84;4947528;28;124299;-70
2022/01/11 00:25:31;;;;;;;28.88;9.15;;;;;;;4.26;62.75;103014.56;4946952;28;120554;-70
2022/01/11 00:28:00;;;;;;;35.33;9.00;;;;;;;4.27;62.84;103011.06;4944675;28;124649;-69
2022/01/11 00:30:32;;;;;;;29.80;9.23;;;;;;;4.28;62.98;103012.84;4945863;28;123383;-69
2022/01/11 00:33:03;;;;;;;29.67;9.00;;;;;;;4.31;63.07;103002.38;4939840;28;119423;-69
2022/01/11 00:35:56;;;;;;;35.00;8.75;;;;;;;4.32;63.01;103004.16;4945100;28;118727;-69
2022/01/11 00:38:26;;;;;;;29.08;8.55;;;;;;;4.30;62.94;103011.13;4944165;28;124021;-70
2022/01/11 00:40:56;;;;;;;37.05;9.25;;;;;;;4.27;62.89;103011.06;4947312;28;125163;-70
2022/01/11 00:43:25;;;;;;;27.33;9.38;;;;;;;4.28;63.05;103007.59;4929644;28;118793;-70
2022/01/11 00:45:54;;;;;;;32.20;9.68;;;;;;;4.29;62.85;103014.59;4927223;28;119068;-70
2022/01/11 00:48:21;;;;;;;23.42;9.20;;;;;;;4.29;63.14;103020.75;4945314;28;124569;-70
2022/01/11 00:50:50;;;;;;;29.20;9.77;;;;;;;4.33;62.97;103016.41;4946903;28;124866;-70
2022/01/11 00:53:18;;;;;;;33.58;8.88;;;;;;;4.35;62.89;103013.81;4946750;28;119853;-70
2022/01/11 00:55:47;;;;;;;32.67;9.68;;;;;;;4.35;62.92;103014.72;4929397;28;118120;-70
2022/01/11 00:58:16;;;;;;;27.77;9.80;;;;;;;4.35;63.07;103019.97;4945470;28;123346;-70
2022/01/11 01:00:44;;;;;;;27.63;9.75;;;;;;;4.35;63.15;103012.09;4936348;28;123400;-70
2022/01/11 01:03:11;;;;;;;25.15;9.60;;;;;;;4.38;63.33;103017.34;4929500;28;118947;-70
2022/01/11 01:05:40;;;;;;;27.02;9.90;;;;;;;4.41;63.14;103025.28;4945443;28;118160;-70
2022/01/11 01:08:08;;;;;;;28.63;9.82;;;;;;;4.44;63.10;103041.06;4928517;28;123959;-70
2022/01/11 01:10:45;;;;;;;26.70;10.25;;;;;;;4.46;63.26;103034.13;4927747;28;126139;-70
2022/01/11 01:13:20;;;;;;;26.88;10.32;;;;;;;4.47;62.98;103033.25;4923562;28;119172;-70
2022/01/11 01:15:54;;;;;;;28.40;10.60;;;;;;;4.51;63.08;103030.69;4944833;28;119146;-70
2022/01/11 01:18:33;;;;;;;29.38;10.27;;;;;;;4.52;63.17;103032.44;4944887;28;122380;-70
2022/01/11 01:21:01;;;;;;;24.67;9.80;;;;;;;4.51;62.96;103036.81;4942257;28;124338;-70
2022/01/11 01:23:28;;;;;;;25.65;9.50;;;;;;;4.53;63.25;103044.72;4946813;28;119163;-70
2022/01/11 01:25:56;;;;;;;26.13;9.90;;;;;;;4.54;63.14;103046.44;4945921;28;119123;-70
2022/01/11 01:28:24;;;;;;;26.15;9.02;;;;;;;4.55;63.01;103037.75;4945347;28;123434;-69
2022/01/11 01:30:52;;;;;;;29.23;9.60;;;;;;;4.58;63.05;103048.28;4945600;28;125166;-68
2022/01/11 01:33:20;;;;;;;21.60;9.40;;;;;;;4.59;63.05;103055.28;4947713;28;119245;-69
2022/01/11 01:35:54;;;;;;;29.13;9.13;;;;;;;4.60;62.88;103046.56;4944432;28;117893;-69
2022/01/11 01:38:24;;;;;;;18.30;8.07;;;;;;;4.60;63.08;103054.44;4944953;28;123950;-68
2022/01/11 01:40:56;;;;;;;21.77;9.13;;;;;;;4.58;62.99;103053.53;4925480;28;124831;-69
2022/01/11 01:43:24;;;;;;;23.55;9.02;;;;;;;4.55;63.04;103053.47;4942961;28;118655;-69
2022/01/11 01:45:52;;;;;;;21.30;9.15;;;;;;;4.54;63.10;103051.69;4942710;28;117716;-69
2022/01/11 01:48:20;;;;;;;21.85;9.00;;;;;;;4.53;62.86;103052.59;4944189;28;123690;-69
2022/01/11 01:50:48;;;;;;;22.77;8.80;;;;;;;4.49;63.06;103055.16;4940831;28;122604;-69
2022/01/11 01:53:16;;;;;;;23.70;9.00;;;;;;;4.48;63.01;103058.66;4944832;28;119855;-69
2022/01/11 01:55:45;;;;;;;23.83;8.98;;;;;;;4.46;62.73;103055.13;4942424;28;119175;-69
2022/01/11 01:58:14;;;;;;;24.92;9.07;;;;;;;4.45;62.85;103058.59;4943990;28;123403;-69
2022/01/11 02:00:46;;;;;;;21.85;9.15;;;;;;;4.44;63.04;103056.81;4944099;28;124591;-69
2022/01/11 02:03:15;;;;;;;22.60;9.23;;;;;;;4.43;62.99;103057.69;4923047;28;119582;-69
2022/01/11 02:05:43;;;;;;;19.63;8.07;;;;;;;4.42;63.00;103058.53;4943888;28;119106;-69
2022/01/11 02:08:13;;;;;;;22.83;9.20;;;;;;;4.42;63.11;103055.03;4941597;28;122897;-69
2022/01/11 02:10:40;;;;;;;18.00;8.35;;;;;;;4.41;62.83;103056.78;4944014;28;122968;-69
2022/01/11 02:13:10;;;;;;;17.63;7.45;;;;;;;4.39;62.90;103058.50;4943790;28;118728;-69
2022/01/11 02:15:38;;;;;;;18.33;8.32;;;;;;;4.36;62.93;103058.44;4944199;28;118242;-69
2022/01/11 02:18:12;;;;;;;21.58;8.85;;;;;;;4.33;62.93;103058.38;4927787;28;122674;-69
2022/01/11 02:20:43;;;;;;;19.73;8.00;;;;;;;4.32;62.77;103067.13;4943966;28;123051;-69
2022/01/11 02:23:14;;;;;;;19.35;8.15;;;;;;;4.31;63.00;103067.94;4941585;28;119109;-71
2022/01/11 02:25:42;;;;;;;20.90;8.30;;;;;;;4.29;62.78;103067.03;4943526;28;118351;-69
2022/01/11 02:28:12;;;;;;;18.27;8.63;;;;;;;4.27;62.78;103074.88;4926624;28;123300;-69
2022/01/11 02:30:42;;;;;;;19.95;8.35;;;;;;;4.25;62.82;103066.09;4927367;28;123443;-70
2022/01/11 02:33:57;;;;;;;17.17;7.75;;;;;;;4.23;62.87;103061.72;4945674;28;119444;-69
2022/01/11 02:36:05;;;;;;;22.75;8.30;;;;;;;4.22;62.84;103070.41;4920722;28;118199;-69
2022/01/11 02:38:35;;;;;;;21.70;8.60;;;;;;;4.20;62.93;103066.88;4942900;28;123758;-69
2022/01/11 02:41:04;;;;;;;18.30;8.55;;;;;;;4.18;62.87;103074.75;4943614;28;124629;-69
2022/01/11 02:43:31;;;;;;;18.70;7.93;;;;;;;4.14;62.84;103062.41;4944275;28;119519;-69
2022/01/11 02:46:00;;;;;;;21.80;8.30;;;;;;;4.13;62.79;103067.66;4946581;28;119417;-69
2022/01/11 02:48:30;;;;;;;17.90;7.28;;;;;;;4.11;62.77;103065.00;4943946;28;123847;-68
2022/01/11 02:50:58;;;;;;;21.42;8.52;;;;;;;4.09;62.90;103070.22;4927416;28;123152;-68
2022/01/11 02:53:26;;;;;;;17.70;8.30;;;;;;;4.08;62.85;103076.31;4942926;28;121398;-69
2022/01/11 02:55:55;;;;;;;19.92;7.80;;;;;;;4.06;62.93;103080.63;4939231;28;119566;-69
2022/01/11 02:58:22;;;;;;;18.75;7.88;;;;;;;4.06;62.76;103075.41;4944881;28;123187;-69
2022/01/11 03:00:49;;;;;;;20.25;7.90;;;;;;;4.05;62.86;103073.66;4944495;28;122970;-69
2022/01/11 03:03:22;;;;;;;23.90;8.48;;;;;;;4.04;62.87;103074.50;4945069;28;118724;-69
2022/01/11 03:05:52;;;;;;;17.90;8.25;;;;;;;4.05;63.12;103078.88;4944617;28;118410;-68
2022/01/11 03:08:22;;;;;;;21.10;8.27;;;;;;;4.05;62.91;103081.50;4943932;28;124473;-69
2022/01/11 03:10:50;;;;;;;22.45;8.70;;;;;;;4.07;63.04;103082.41;4945114;28;123060;-69
2022/01/11 03:13:18;;;;;;;21.50;7.72;;;;;;;4.06;62.79;103085.88;4948631;28;119887;-69
2022/01/11 03:15:48;;;;;;;21.30;7.85;;;;;;;4.05;62.69;103077.97;4947921;28;118127;-69
2022/01/11 03:18:16;;;;;;;18.83;7.78;;;;;;;4.00;62.96;103080.53;4929443;28;123922;-69
2022/01/11 03:20:50;;;;;;;21.75;8.75;;;;;;;3.97;62.79;103087.47;4929921;28;122992;-69
2022/01/11 03:23:18;;;;;;;21.63;8.68;;;;;;;3.94;62.94;103101.41;4944803;28;118674;-69
2022/01/11 03:25:48;;;;;;;21.13;8.43;;;;;;;3.93;62.95;103107.50;4930596;28;119007;-69
2022/01/11 03:28:16;;;;;;;23.17;8.60;;;;;;;3.93;62.61;103099.63;4930885;28;123329;-69
2022/01/11 03:30:43;;;;;;;22.42;8.63;;;;;;;3.92;63.13;103097.88;4948209;28;123687;-69
2022/01/11 03:33:11;;;;;;;20.00;8.40;;;;;;;3.92;63.04;103097.88;4947164;28;118705;-69
2022/01/11 03:35:43;;;;;;;20.27;8.80;;;;;;;3.92;62.92;103095.25;4946958;28;118336;-69
2022/01/11 03:38:13;;;;;;;21.15;8.77;;;;;;;3.93;63.11;103099.63;4946506;28;123928;-73
2022/01/11 03:40:44;;;;;;;20.63;8.93;;;;;;;3.95;63.12;103097.91;4942365;28;123687;-70
2022/01/11 03:43:11;;;;;;;20.67;8.80;;;;;;;3.96;63.12;103104.94;4929770;28;119431;-71
2022/01/11 03:45:39;;;;;;;25.70;9.45;;;;;;;3.99;63.19;103112.84;4949007;28;119788;-69
2022/01/11 03:48:13;;;;;;;21.67;9.02;;;;;;;4.00;63.04;103112.00;4930200;28;123525;-69
2022/01/11 03:50:41;;;;;;;22.33;9.57;;;;;;;4.02;63.01;103105.03;4929798;28;122684;-70
2022/01/11 03:53:12;;;;;;;22.80;9.02;;;;;;;4.01;62.82;103098.03;4947988;28;119668;-70
2022/01/11 03:58:15;;;;;;;24.92;9.45;;;;;;;4.04;63.05;103102.47;4946994;28;125458;-70
2022/01/11 04:00:44;;;;;;;24.42;10.00;;;;;;;4.05;63.25;103099.88;4929970;28;124336;-69
2022/01/11 04:03:11;;;;;;;26.00;10.40;;;;;;;4.05;63.39;103099.88;4946978;28;119221;-70
2022/01/11 04:05:42;;;;;;;25.10;10.38;;;;;;;4.07;63.11;103098.16;4948740;28;119807;-70
2022/01/11 04:08:10;;;;;;;26.58;9.90;;;;;;;4.07;63.10;103098.16;4946029;28;123256;-70
2022/01/11 04:10:38;;;;;;;24.00;10.45;;;;;;;4.07;63.49;103092.91;4947876;28;123698;-69
2022/01/11 04:13:05;;;;;;;25.25;9.38;;;;;;;4.08;63.10;103110.41;4948005;28;119712;-70
2022/01/11 04:15:32;;;;;;;26.38;10.25;;;;;;;4.08;63.14;103105.16;4945787;28;118478;-70
2022/01/11 04:18:02;;;;;;;22.70;9.38;;;;;;;4.10;63.14;103098.19;4944967;28;123260;-70
2022/01/11 04:20:30;;;;;;;22.95;9.85;;;;;;;4.12;63.04;103102.59;4945558;28;123466;-70
2022/01/11 04:22:58;;;;;;;23.65;9.77;;;;;;;4.13;62.97;103107.00;4928593;28;118914;-70
2022/01/11 04:25:26;;;;;;;25.95;10.32;;;;;;;4.15;62.88;103107.91;4942969;28;118516;-70
2022/01/11 04:27:56;;;;;;;24.60;10.20;;;;;;;4.14;63.10;103100.88;4944963;28;122191;-70
2022/01/11 04:30:23;;;;;;;29.25;10.20;;;;;;;4.15;63.00;103095.66;4945630;28;123507;-70
2022/01/11 04:32:51;;;;;;;23.65;9.50;;;;;;;4.16;63.13;103107.03;4946904;28;120847;-70
2022/01/11 04:35:19;;;;;;;27.27;10.05;;;;;;;4.18;63.24;103105.31;4946952;28;120504;-70
2022/01/11 04:37:47;;;;;;;22.75;9.63;;;;;;;4.21;63.15;103115.88;4926614;28;123806;-70
2022/01/11 04:40:15;;;;;;;23.85;10.23;;;;;;;4.21;62.87;103113.25;4945160;28;123249;-70
2022/01/11 04:42:45;;;;;;;27.17;9.85;;;;;;;4.20;62.98;103107.13;4947321;28;119591;-70
2022/01/11 04:45:14;;;;;;;24.52;9.85;;;;;;;4.21;63.14;103113.25;4946828;28;119316;-70
2022/01/11 04:47:50;;;;;;;23.05;9.52;;;;;;;4.20;62.99;103111.47;4945780;28;123332;-70
2022/01/11 04:50:17;;;;;;;26.27;11.15;;;;;;;4.19;63.18;103117.59;4941978;28;122763;-70
2022/01/11 04:52:44;;;;;;;26.40;10.35;;;;;;;4.17;63.15;103119.31;4930415;28;118896;-70
2022/01/11 04:55:13;;;;;;;27.80;10.38;;;;;;;4.17;62.81;103119.31;4945227;28;118065;-70
2022/01/11 04:57:45;;;;;;;27.15;10.55;;;;;;;4.15;62.88;103110.53;4944636;28;124032;-70
2022/01/11 05:00:14;;;;;;;29.75;10.55;;;;;;;4.13;63.19;103122.72;4929324;28;123670;-70
2022/01/11 05:02:42;;;;;;;26.38;10.65;;;;;;;4.13;62.98;103122.72;4928801;28;118898;-70
2022/01/11 05:05:10;;;;;;;23.75;9.93;;;;;;;4.14;63.03;103121.84;4946353;28;119935;-70
2022/01/11 05:07:42;;;;;;;24.92;10.13;;;;;;;4.15;63.17;103115.78;4913558;28;123390;-70
2022/01/11 05:10:10;;;;;;;27.50;10.98;;;;;;;4.16;62.94;103117.53;4946549;28;124090;-70
2022/01/11 05:12:39;;;;;;;28.75;10.45;;;;;;;4.15;63.03;103113.16;4945189;28;118960;-70
2022/01/11 05:15:12;;;;;;;28.25;10.88;;;;;;;4.11;63.03;103109.59;4944773;28;118428;-70
2022/01/11 05:17:43;;;;;;;27.67;10.38;;;;;;;4.09;62.77;103112.19;4944753;28;124587;-70
2022/01/11 05:20:12;;;;;;;26.65;9.93;;;;;;;4.07;62.78;103103.41;4944443;28;124362;-69
2022/01/11 05:22:39;;;;;;;23.63;9.60;;;;;;;4.05;62.91;103110.34;4943349;28;120703;-70
2022/01/11 05:25:07;;;;;;;25.67;9.23;;;;;;;4.03;63.00;103112.06;4946419;28;119774;-70
2022/01/11 05:27:35;;;;;;;29.38;10.45;;;;;;;4.05;63.10;103110.34;4928307;28;124057;-70
2022/01/11 05:30:03;;;;;;;22.80;9.90;;;;;;;4.04;62.90;103119.06;4944640;28;123354;-70
2022/01/11 05:32:31;;;;;;;27.52;9.35;;;;;;;4.01;62.91;103113.78;4929050;28;118880;-70
2022/01/11 05:34:59;;;;;;;22.48;8.77;;;;;;;4.00;63.11;103122.50;4942945;28;118388;-70
2022/01/11 05:37:26;;;;;;;22.30;9.55;;;;;;;3.98;62.92;103116.34;4928652;28;125715;-70
2022/01/11 05:39:53;;;;;;;24.52;9.80;;;;;;;3.97;63.10;103117.19;4945132;28;123049;-70
2022/01/11 05:42:24;;;;;;;22.48;9.20;;;;;;;3.95;62.89;103118.00;4945093;28;118033;-70
2022/01/11 05:44:52;;;;;;;21.98;9.57;;;;;;;3.91;62.70;103122.31;4944468;28;117893;-70
2022/01/11 05:47:19;;;;;;;23.63;9.60;;;;;;;3.88;62.96;103127.47;4945166;28;122678;-70
2022/01/11 05:49:46;;;;;;;24.88;9.73;;;;;;;3.86;62.93;103124.84;4929216;28;122692;-68
2022/01/11 05:52:14;;;;;;;19.98;9.48;;;;;;;3.84;63.01;103128.28;4945206;28;118705;-69
2022/01/11 05:54:41;;;;;;;22.23;9.52;;;;;;;3.82;62.90;103127.38;4944578;28;119256;-68
2022/01/11 05:57:09;;;;;;;24.85;9.52;;;;;;;3.80;63.05;103136.94;4939606;28;123537;-69
2022/01/11 05:59:37;;;;;;;24.45;9.55;;;;;;;3.79;62.65;103137.81;4929714;28;123089;-69
2022/01/11 06:02:05;;;;;;;19.65;8.63;;;;;;;3.75;62.63;103130.72;4944257;28;120111;-68
2022/01/11 06:04:32;;;;;;;21.92;9.38;;;;;;;3.73;62.81;103132.41;4945572;28;118145;-69
2022/01/11 06:06:59;;;;;;;23.17;9.88;;;;;;;3.69;62.56;103137.63;4943837;28;123668;-69
2022/01/11 06:09:28;;;;;;;25.40;10.27;;;;;;;3.67;63.07;103138.41;4945004;28;123546;-69
2022/01/11 06:11:56;;;;;;;22.83;9.15;;;;;;;3.66;62.76;103148.03;4943615;28;123632;-69
2022/01/11 06:14:24;;;;;;;21.77;10.38;;;;;;;3.63;62.98;103155.81;4928329;28;119126;-70
2022/01/11 06:16:51;;;;;;;22.77;10.18;;;;;;;3.61;62.71;103154.91;4946029;28;124067;-69
2022/01/11 06:19:19;;;;;;;25.95;10.57;;;;;;;3.61;63.00;103159.25;4944912;28;123061;-69
2022/01/11 06:22:03;;;;;;;26.33;11.38;;;;;;;3.58;63.02;103154.84;4941860;28;120380;-69
2022/01/11 06:24:31;;;;;;;29.23;12.15;;;;;;;3.57;62.92;103166.16;4945989;28;119052;-70
2022/01/11 06:26:59;;;;;;;28.27;11.80;;;;;;;3.57;63.07;103166.16;4944131;28;123536;-69
2022/01/11 06:29:26;;;;;;;28.35;12.02;;;;;;;3.58;62.90;103157.47;4944481;28;124932;-69
2022/01/11 06:31:54;;;;;;;29.52;12.15;;;;;;;3.59;62.94;103167.09;4943880;28;118502;-69
2022/01/11 06:34:21;;;;;;;30.00;11.90;;;;;;;3.59;62.83;103161.84;4943707;28;118577;-69
2022/01/11 06:36:49;;;;;;;33.13;13.20;;;;;;;3.59;62.88;103174.94;4944324;28;124465;-69
2022/01/11 06:39:16;;;;;;;30.88;12.02;;;;;;;3.59;63.04;103182.81;4944040;28;123356;-69
2022/01/11 06:41:44;;;;;;;34.72;13.63;;;;;;;3.59;62.84;103188.03;4945041;28;118985;-71
2022/01/11 06:44:14;;;;;;;33.50;14.07;;;;;;;3.57;62.92;103184.50;4943473;28;118086;-69
2022/01/11 06:46:44;;;;;;;36.92;14.63;;;;;;;3.57;62.79;103189.75;4946740;28;123607;-69
2022/01/11 06:49:15;;;;;;;36.22;13.70;;;;;;;3.57;62.93;103189.75;4946456;28;122264;-69
2022/01/11 06:51:43;;;;;;;38.13;13.73;;;;;;;3.55;63.09;103188.84;4947185;28;119073;-71
2022/01/11 06:54:10;;;;;;;33.88;13.73;;;;;;;3.56;62.80;103198.47;4949029;28;118594;-71
2022/01/11 06:56:37;;;;;;;34.35;13.63;;;;;;;3.59;63.09;103195.03;4929127;28;123748;-69
2022/01/11 06:59:08;;;;;;;31.20;12.32;;;;;;;3.59;62.88;103198.53;4947482;28;123371;-71
2022/01/11 07:01:38;;;;;;;34.50;12.52;;;;;;;3.61;63.31;103195.94;4947060;28;120401;-70
2022/01/11 07:04:19;;;;;;;27.50;11.80;;;;;;;3.63;63.05;103199.47;4946215;28;119001;-70
2022/01/11 07:06:51;;;;;;;32.20;11.70;;;;;;;3.63;62.79;103205.59;4947044;28;123124;-70
2022/01/11 07:09:19;;;;;;;25.08;11.27;;;;;;;3.63;62.98;103205.59;4932101;28;126363;-70
2022/01/11 07:11:46;;;;;;;25.73;11.40;;;;;;;3.63;62.66;103205.59;4947033;28;118689;-72
2022/01/11 07:14:13;;;;;;;30.33;12.18;;;;;;;3.63;63.05;103205.59;4948021;28;119193;-71
2022/01/11 07:16:48;;;;;;;29.75;12.60;;;;;;;3.63;62.80;103209.97;4947299;28;122983;-70
2022/01/11 07:19:16;;;;;;;28.35;11.45;;;;;;;3.64;62.85;103206.50;4947673;28;124452;-70
2022/01/11 07:21:46;;;;;;;27.48;11.00;;;;;;;3.64;62.91;103212.63;4946401;28;118342;-70
2022/01/11 07:24:16;;;;;;;27.70;11.20;;;;;;;3.63;62.82;103216.06;4930457;28;118655;-70
2022/01/11 07:26:43;;;;;;;28.45;10.95;;;;;;;3.62;62.89;103214.31;4946169;28;123395;-70
2022/01/11 07:29:11;;;;;;;25.17;10.23;;;;;;;3.61;62.94;103212.53;4931238;28;123420;-70
2022/01/11 07:31:39;;;;;;;27.52;10.93;;;;;;;3.61;62.87;103220.41;4945009;28;119045;-69
2022/01/11 07:34:08;;;;;;;26.27;10.27;;;;;;;3.60;62.86;103230.84;4946034;28;118419;-70
2022/01/11 07:36:37;;;;;;;23.42;9.98;;;;;;;3.59;62.78;103235.22;4946711;28;123215;-70
2022/01/11 07:39:07;;;;;;;20.17;9.88;;;;;;;3.59;62.64;103234.34;4947494;28;123183;-70
2022/01/11 07:41:36;;;;;;;25.05;10.07;;;;;;;3.56;62.69;103235.16;4948416;28;119398;-70
2022/01/11 07:44:11;;;;;;;26.67;11.02;;;;;;;3.54;62.83;103231.59;4945954;28;118531;-70
2022/01/11 07:46:40;;;;;;;23.48;10.15;;;;;;;3.53;62.76;103242.94;4930665;28;122855;-70
2022/01/11 07:49:14;;;;;;;23.65;10.32;;;;;;;3.54;62.78;103247.31;4946615;28;126451;-67
2022/01/11 07:51:42;;;;;;;24.90;10.32;;;;;;;3.53;63.09;103242.94;4946514;28;120550;-68
2022/01/11 07:54:09;;;;;;;21.20;9.98;;;;;;;3.55;63.01;103243.84;4946932;28;120491;-70
2022/01/11 07:56:38;;;;;;;25.88;9.90;;;;;;;3.52;62.80;103235.91;4929839;28;125921;-70
2022/01/11 07:59:05;;;;;;;28.85;10.85;;;;;;;3.52;62.93;103243.78;4929973;28;124009;-71
2022/01/11 08:01:38;;;;;;;23.60;9.43;;;;;;;3.52;62.70;103243.78;4945827;28;118922;-70
2022/01/11 08:04:06;;;;;;;26.98;10.60;;;;;;;3.49;62.84;103238.47;4947275;28;118214;-71
2022/01/11 08:06:43;;;;;;;25.02;10.85;;;;;;;3.47;62.62;103240.19;4945734;28;123548;-70
2022/01/11 08:09:30;;;;;;;25.10;10.02;;;;;;;3.47;62.99;103245.44;4947431;28;124510;-71
2022/01/11 08:11:58;;;;;;;25.27;10.75;;;;;;;3.45;62.82;103236.66;4946647;28;118804;-71
2022/01/11 08:14:27;;;;;;;25.90;10.85;;;;;;;3.46;62.90;103235.78;4946092;28;118778;-71
2022/01/11 08:16:54;;;;;;;24.55;10.73;;;;;;;3.48;62.70;103241.94;4929967;28;123232;-71
2022/01/11 08:19:25;;;;;;;28.23;11.18;;;;;;;3.46;62.85;103249.75;4947082;28;123837;-71
2022/01/11 08:21:54;;;;;;;31.13;11.65;;;;;;;3.45;62.74;103241.88;4946015;28;118462;-71
2022/01/11 08:24:24;;;;;;;27.60;11.20;;;;;;;3.47;63.11;103245.44;4931506;28;118248;-71
2022/01/11 08:26:54;;;;;;;26.45;11.02;;;;;;;3.47;62.79;103241.06;4946735;28;123077;-71
2022/01/11 08:29:22;;;;;;;28.42;11.40;;;;;;;3.51;62.81;103242.03;4946045;28;124146;-71
2022/01/11 08:31:56;;;;;;;32.92;12.65;;;;;;;3.53;62.95;103244.69;4946385;28;118506;-70
2022/01/11 08:34:23;;;;;;;27.17;11.77;;;;;;;3.56;62.90;103253.50;4931997;28;118463;-70
2022/01/11 08:36:54;;;;;;;31.52;12.07;;;;;;;3.60;63.17;103252.72;4947136;28;123521;-70
2022/01/11 08:39:22;;;;;;;31.30;11.82;;;;;;;3.65;62.81;103247.56;4944222;28;125279;-71
2022/01/11 08:41:50;;;;;;;28.85;11.23;;;;;;;3.68;62.99;103251.16;4948767;28;118818;-71
2022/01/11 08:44:20;;;;;;;29.17;11.63;;;;;;;3.69;62.77;103252.03;4947642;28;120009;-70
2022/01/11 08:46:47;;;;;;;31.85;12.68;;;;;;;3.69;62.95;103247.69;4946888;28;123994;-71
2022/01/11 08:49:23;;;;;;;30.27;12.45;;;;;;;3.69;62.93;103252.94;4947847;28;123653;-71
2022/01/11 08:51:51;;;;;;;30.88;12.10;;;;;;;3.74;62.97;103249.53;4947087;28;120130;-70
2022/01/11 08:54:24;;;;;;;28.95;12.10;;;;;;;3.76;62.97;103247.81;4947398;28;118472;-71
2022/01/11 08:56:55;;;;;;;24.48;11.18;;;;;;;3.77;63.17;103244.31;4946502;28;122509;-71
2022/01/11 08:59:25;;;;;;;29.20;11.50;;;;;;;3.80;63.08;103244.41;4946348;28;123484;-71
2022/01/11 09:01:57;;;;;;;28.30;11.98;;;;;;;3.84;62.90;103251.47;4947286;28;118507;-71
2022/01/11 09:04:27;;;;;;;29.38;11.70;;;;;;;3.88;62.73;103258.56;4946560;28;118701;-71
2022/01/11 09:07:17;;;;;;;28.73;11.35;;;;;;;3.94;62.87;103258.72;4942971;28;124795;-71
2022/01/11 09:09:45;;;;;;;28.27;11.32;;;;;;;3.98;63.00;103255.28;4928572;28;125067;-72
2022/01/11 09:12:15;;;;;;;30.20;12.27;;;;;;;4.02;62.78;103257.13;4946279;28;118691;-70
2022/01/11 09:14:47;;;;;;;31.45;11.82;;;;;;;4.05;62.80;103251.94;4945716;28;118608;-71
2022/01/11 09:17:15;;;;;;;30.38;12.57;;;;;;;4.08;63.16;103257.25;4946283;28;125581;-71
2022/01/11 09:19:43;;;;;;;29.50;11.38;;;;;;;4.10;62.76;103259.91;4954661;28;124107;-71
2022/01/11 09:22:14;;;;;;;29.48;12.18;;;;;;;4.13;63.02;103269.59;4948747;28;118815;-71
2022/01/11 09:24:42;;;;;;;28.55;10.68;;;;;;;4.17;63.00;103271.41;4948979;28;118732;-71
2022/01/11 09:27:14;;;;;;;34.33;12.18;;;;;;;4.22;63.03;103275.00;4948467;28;123168;-71
2022/01/11 09:29:44;;;;;;;33.38;12.32;;;;;;;4.27;63.13;103276.00;4945542;28;124075;-71
2022/01/11 09:32:14;;;;;;;28.95;11.93;;;;;;;4.33;62.94;103278.72;4944773;28;120829;-71
2022/01/11 09:34:42;;;;;;;32.15;11.82;;;;;;;4.38;63.00;103277.09;4945027;28;119366;-71
2022/01/11 09:37:17;;;;;;;31.57;12.37;;;;;;;4.42;62.74;103278.91;4928607;28;123223;-71
2022/01/11 09:39:45;;;;;;;31.30;12.48;;;;;;;4.44;62.79;103279.81;4944435;28;123258;-70
2022/01/11 09:42:12;;;;;;;30.48;11.60;;;;;;;4.48;62.88;103284.31;4945539;28;118726;-71
2022/01/11 09:44:41;;;;;;;30.55;12.00;;;;;;;4.53;62.81;103296.63;4945019;28;118090;-71
2022/01/11 09:47:12;;;;;;;34.40;12.43;;;;;;;4.58;62.84;103300.25;4945946;28;125141;-71
2022/01/11 09:49:43;;;;;;;32.65;12.90;;;;;;;4.61;63.04;103293.28;4942749;28;123201;-71
2022/01/11 09:52:12;;;;;;;33.10;13.73;;;;;;;4.68;62.93;103297.78;4945365;28;118843;-72
2022/01/11 09:54:45;;;;;;;32.47;12.13;;;;;;;4.72;62.91;103296.13;4943228;28;118184;-71
2022/01/11 09:57:14;;;;;;;32.90;12.63;;;;;;;4.78;63.04;103301.47;4944599;28;123841;-71
2022/01/11 09:59:41;;;;;;;34.08;12.38;;;;;;;4.85;63.14;103300.75;4943389;28;123114;-72
2022/01/11 10:02:42;;;;;;;31.95;12.00;;;;;;;4.91;62.71;103302.59;4946125;28;119852;-71
2022/01/11 10:05:20;;;;;;;31.98;12.32;;;;;;;4.95;62.83;103306.16;4928443;28;118385;-71
2022/01/11 10:07:53;;;;;;;32.22;12.55;;;;;;;4.99;62.83;103307.97;4945871;28;123459;-73
2022/01/11 10:10:24;;;;;;;29.55;12.18;;;;;;;5.06;62.97;103304.63;4946672;28;123315;-72
2022/01/11 10:13:03;;;;;;;26.75;11.02;;;;;;;5.13;62.94;103301.25;4944352;28;118481;-71
2022/01/11 10:15:34;;;;;;;27.52;11.48;;;;;;;5.22;62.79;103301.41;4930156;28;118880;-72
2022/01/11 10:18:09;;;;;;;27.73;11.68;;;;;;;5.29;62.83;103291.84;4945602;28;124653;-71
2022/01/11 10:20:37;;;;;;;28.33;11.95;;;;;;;5.38;62.78;103296.38;4948360;28;122794;-71
2022/01/11 10:23:13;;;;;;;28.50;11.10;;;;;;;5.45;62.85;103298.25;4933088;28;120678;-71
2022/01/11 10:25:49;;;;;;;31.75;11.35;;;;;;;5.53;62.85;103291.38;4950286;28;119355;-70
2022/01/11 10:28:35;;;;;;;26.63;11.10;;;;;;;5.62;63.10;103291.53;4933422;28;123175;-71
2022/01/11 10:31:04;;;;;;;27.55;11.77;;;;;;;5.71;63.11;103287.25;4949108;28;123278;-72
2022/01/11 10:33:36;;;;;;;29.05;11.43;;;;;;;5.78;62.89;103286.47;4942170;28;119056;-73
2022/01/11 10:36:04;;;;;;;26.05;10.90;;;;;;;5.88;62.74;103290.13;4950629;28;118764;-72
2022/01/11 10:39:25;;;;;;;21.83;10.30;;;;;;;5.95;62.77;103285.03;4955677;28;122916;-71
2022/01/11 10:41:53;;;;;;;23.08;9.48;;;;;;;6.04;62.96;103290.38;4943449;28;123269;-70
2022/01/11 10:44:42;;;;;;;23.25;10.57;;;;;;;6.15;62.80;103297.56;4910028;28;117503;-71
2022/01/11 10:47:16;;;;;;;22.58;9.60;;;;;;;6.22;62.61;103307.28;4960475;28;117390;-70
2022/01/11 10:49:44;;;;;;;24.55;10.30;;;;;;;6.29;62.66;103309.16;4958285;28;124232;-71
2022/01/11 10:52:15;;;;;;;27.08;10.80;;;;;;;6.32;62.43;103306.53;4954394;28;122046;-70
2022/01/11 10:54:45;;;;;;;23.60;10.32;;;;;;;6.37;62.71;103299.59;4959907;28;118097;-69
2022/01/11 10:57:15;;;;;;;24.25;9.75;;;;;;;6.43;62.23;103299.66;4960774;28;117614;-70
2022/01/11 10:59:43;;;;;;;20.33;9.98;;;;;;;6.47;62.54;103291.81;4940406;28;123800;-70
2022/01/11 11:02:25;;;;;;;25.17;10.30;;;;;;;6.51;62.37;103290.97;4951724;28;125327;-70
2022/01/11 11:04:55;;;;;;;22.25;9.50;;;;;;;6.57;62.22;103293.66;4933922;28;117776;-70
2022/01/11 11:07:39;;;;;;;19.65;9.13;;;;;;;6.61;62.23;103293.72;4934028;28;118228;-70
2022/01/11 11:10:10;;;;;;;23.55;10.38;;;;;;;6.66;61.95;103290.25;4932897;28;123744;-70
2022/01/11 11:12:37;;;;;;;20.92;9.95;;;;;;;6.72;62.28;103296.47;4948302;28;122965;-70
2022/01/11 11:15:11;;;;;;;21.00;9.50;;;;;;;6.74;62.07;103289.47;4933747;28;119358;-70
2022/01/11 11:17:59;;;;;;;20.08;9.35;;;;;;;6.78;61.93;103296.53;4933633;28;119283;-70
2022/01/11 11:20:38;;;;;;;22.00;10.05;;;;;;;6.80;61.98;103289.53;4936039;28;123205;-70
2022/01/11 11:23:06;;;;;;;21.38;9.32;;;;;;;6.82;61.85;103293.06;4950345;28;124468;-70
2022/01/11 11:25:33;;;;;;;21.45;9.43;;;;;;;6.85;62.15;103291.31;4950649;28;119760;-70
2022/01/11 11:28:01;;;;;;;19.65;9.55;;;;;;;6.87;61.76;103289.59;4932591;28;118462;-70
2022/01/11 11:30:28;;;;;;;23.02;9.18;;;;;;;6.89;61.86;103277.31;4951762;28;124771;-70
2022/01/11 11:32:56;;;;;;;21.17;9.38;;;;;;;6.92;61.73;103280.00;4951234;28;124278;-70